createdAt,value
2023-05-30T00:00:40.378Z,1016.59
2023-05-30T00:01:40.321Z,1016.60
2023-05-30T00:02:41.412Z,1016.60
2023-05-30T00:03:42.000Z,1016.60
2023-05-30T00:04:42.424Z,1016.60
2023-05-30T00:05:43.300Z,1016.60
2023-05-30T00:06:44.250Z,1016.58
2023-05-30T00:07:45.198Z,1016.59
2023-05-30T00:08:46.176Z,1016.58
2023-05-30T00:09:47.391Z,1016.57
2023-05-30T00:10:47.307Z,1016.54
2023-05-30T00:11:48.241Z,1016.55
2023-05-30T00:12:49.153Z,1016.56
2023-05-30T00:13:50.049Z,1016.58
2023-05-30T00:14:50.951Z,1016.56
2023-05-30T00:15:51.924Z,1016.55
2023-05-30T00:16:52.886Z,1016.56
2023-05-30T00:17:53.938Z,1016.54
2023-05-30T00:18:54.421Z,1016.54
2023-05-30T00:19:55.884Z,1016.56
2023-05-30T00:20:56.235Z,1016.55
2023-05-30T00:21:57.386Z,1016.57
2023-05-30T00:22:57.289Z,1016.57
2023-05-30T00:23:58.235Z,1016.56
2023-05-30T00:24:59.141Z,1016.59
2023-05-30T00:26:00.150Z,1016.58
2023-05-30T00:27:01.917Z,1016.59
2023-05-30T00:28:01.896Z,1016.58
2023-05-30T00:29:02.904Z,1016.59
2023-05-30T00:30:03.408Z,1016.59
2023-05-30T00:31:04.349Z,1016.60
2023-05-30T00:32:05.334Z,1016.60
2023-05-30T00:33:05.887Z,1016.59
2023-05-30T00:34:06.841Z,1016.59
2023-05-30T00:35:07.848Z,1016.62
2023-05-30T00:36:08.285Z,1016.64
2023-05-30T00:37:09.207Z,1016.66
2023-05-30T00:38:11.214Z,1016.66
2023-05-30T00:39:10.671Z,1016.65
2023-05-30T00:40:11.623Z,1016.65
2023-05-30T00:41:12.101Z,1016.64
2023-05-30T00:42:12.999Z,1016.64
2023-05-30T00:43:13.915Z,1016.60
2023-05-30T00:44:14.859Z,1016.62
2023-05-30T00:45:15.765Z,1016.62
2023-05-30T00:46:16.719Z,1016.62
2023-05-30T00:47:17.646Z,1016.61
2023-05-30T00:48:18.593Z,1016.62
2023-05-30T00:49:19.575Z,1016.63
2023-05-30T00:50:20.448Z,1016.63
2023-05-30T00:51:21.360Z,1016.61
2023-05-30T00:52:22.901Z,1016.61
2023-05-30T00:53:22.834Z,1016.61
2023-05-30T00:54:23.757Z,1016.59
2023-05-30T00:55:24.650Z,1016.59
2023-05-30T00:56:25.577Z,1016.61
2023-05-30T00:57:26.503Z,1016.57
2023-05-30T00:58:27.427Z,1016.58
2023-05-30T00:59:28.333Z,1016.58
2023-05-30T01:00:29.289Z,1016.60
2023-05-30T01:01:30.186Z,1016.59
2023-05-30T01:02:31.195Z,1016.59
2023-05-30T01:03:31.626Z,1016.58
2023-05-30T01:04:32.302Z,1016.58
2023-05-30T01:05:33.898Z,1016.60
2023-05-30T01:06:33.841Z,1016.63
2023-05-30T01:07:34.760Z,1016.64
2023-05-30T01:08:35.689Z,1016.65
2023-05-30T01:09:36.578Z,1016.62
2023-05-30T01:10:37.536Z,1016.66
2023-05-30T01:11:38.478Z,1016.66
2023-05-30T01:12:39.396Z,1016.66
2023-05-30T01:13:40.301Z,1016.71
2023-05-30T01:14:41.206Z,1016.72
2023-05-30T01:15:42.109Z,1016.75
2023-05-30T01:16:43.098Z,1016.76
2023-05-30T01:17:44.971Z,1016.74
2023-05-30T01:18:44.822Z,1016.72
2023-05-30T01:19:45.699Z,1016.72
2023-05-30T01:20:46.728Z,1016.73
2023-05-30T01:21:47.208Z,1016.75
2023-05-30T01:22:49.215Z,1016.72
2023-05-30T01:23:48.674Z,1016.70
2023-05-30T01:24:49.125Z,1016.70
2023-05-30T01:25:50.066Z,1016.67
2023-05-30T01:26:50.973Z,1016.69
2023-05-30T01:27:51.883Z,1016.67
2023-05-30T01:28:52.788Z,1016.68
2023-05-30T01:29:53.732Z,1016.71
2023-05-30T01:30:54.704Z,1016.72
2023-05-30T01:31:55.624Z,1016.75
2023-05-30T01:32:56.592Z,1016.76
2023-05-30T01:33:57.472Z,1016.78
2023-05-30T01:34:58.419Z,1016.77
2023-05-30T01:35:59.901Z,1016.74
2023-05-30T01:37:01.506Z,1016.71
2023-05-30T01:38:00.403Z,1016.70
2023-05-30T01:39:01.315Z,1016.71
2023-05-30T01:40:02.224Z,1016.71
2023-05-30T01:41:03.156Z,1016.72
2023-05-30T01:42:04.063Z,1016.76
2023-05-30T01:43:05.895Z,1016.80
2023-05-30T01:44:05.835Z,1016.84
2023-05-30T01:45:06.783Z,1016.87
2023-05-30T01:46:07.740Z,1016.88
2023-05-30T01:47:09.761Z,1016.89
2023-05-30T01:48:09.972Z,1016.91
2023-05-30T01:49:09.917Z,1016.91
2023-05-30T01:50:12.444Z,1016.92
2023-05-30T01:51:11.325Z,1016.93
2023-05-30T01:52:12.237Z,1016.93
2023-05-30T01:53:13.153Z,1016.95
2023-05-30T01:54:14.088Z,1016.96
2023-05-30T01:55:14.618Z,1016.94
2023-05-30T01:56:15.488Z,1016.95
2023-05-30T01:57:16.417Z,1016.97
2023-05-30T01:58:17.353Z,1016.98
2023-05-30T01:59:18.260Z,1017.01
2023-05-30T02:00:19.154Z,1017.02
2023-05-30T02:01:20.120Z,1017.02
2023-05-30T02:02:21.039Z,1017.01
2023-05-30T02:03:22.964Z,1017.01
2023-05-30T02:04:22.861Z,1017.03
2023-05-30T02:05:23.838Z,1017.04
2023-05-30T02:06:24.724Z,1017.05
2023-05-30T02:07:25.667Z,1017.04
2023-05-30T02:08:26.584Z,1017.03
2023-05-30T02:09:27.514Z,1017.02
2023-05-30T02:10:28.950Z,1017.02
2023-05-30T02:11:29.351Z,1017.03
2023-05-30T02:12:30.903Z,1017.02
2023-05-30T02:13:30.818Z,1017.04
2023-05-30T02:14:31.727Z,1017.00
2023-05-30T02:15:32.632Z,1017.05
2023-05-30T02:16:33.562Z,1017.07
2023-05-30T02:17:34.528Z,1017.06
2023-05-30T02:18:35.398Z,1017.08
2023-05-30T02:19:36.304Z,1017.06
2023-05-30T02:20:37.276Z,1017.07
2023-05-30T02:21:38.488Z,1017.06
2023-05-30T02:22:38.892Z,1017.04
2023-05-30T02:23:39.802Z,1017.05
2023-05-30T02:24:40.725Z,1017.05
2023-05-30T02:25:41.649Z,1017.08
2023-05-30T02:26:42.583Z,1017.12
2023-05-30T02:27:43.523Z,1017.13
2023-05-30T02:28:44.414Z,1017.15
2023-05-30T02:29:45.298Z,1017.16
2023-05-30T02:30:46.228Z,1017.16
2023-05-30T02:31:47.213Z,1017.18
2023-05-30T02:32:47.727Z,1017.20
2023-05-30T02:33:48.600Z,1017.23
2023-05-30T02:34:49.505Z,1017.21
2023-05-30T02:35:50.484Z,1017.22
2023-05-30T02:36:51.366Z,1017.20
2023-05-30T02:37:52.285Z,1017.20
2023-05-30T02:38:53.161Z,1017.21
2023-05-30T02:39:54.108Z,1017.22
2023-05-30T02:40:55.351Z,1017.20
2023-05-30T02:41:56.436Z,1017.22
2023-05-30T02:42:58.117Z,1017.23
2023-05-30T02:43:57.496Z,1017.24
2023-05-30T02:44:58.440Z,1017.25
2023-05-30T02:45:59.339Z,1017.25
2023-05-30T02:47:00.303Z,1017.25
2023-05-30T02:48:01.934Z,1017.24
2023-05-30T02:49:02.421Z,1017.23
2023-05-30T02:50:02.374Z,1017.21
2023-05-30T02:51:03.278Z,1017.22
2023-05-30T02:52:04.936Z,1017.22
2023-05-30T02:53:04.827Z,1017.23
2023-05-30T02:54:05.771Z,1017.24
2023-05-30T02:55:06.667Z,1017.22
2023-05-30T02:56:07.605Z,1017.24
2023-05-30T02:57:08.537Z,1017.22
2023-05-30T02:58:09.438Z,1017.23
2023-05-30T02:59:10.929Z,1017.24
2023-05-30T03:00:10.851Z,1017.25
2023-05-30T03:01:11.786Z,1017.24
2023-05-30T03:02:12.660Z,1017.25
2023-05-30T03:03:13.663Z,1017.25
2023-05-30T03:04:14.094Z,1017.24
2023-05-30T03:05:14.990Z,1017.25
2023-05-30T03:06:15.934Z,1017.26
2023-05-30T03:07:16.810Z,1017.27
2023-05-30T03:08:25.482Z,1017.27
2023-05-30T03:09:19.578Z,1017.27
2023-05-30T03:10:19.501Z,1017.25
2023-05-30T03:11:20.406Z,1017.23
2023-05-30T03:12:21.949Z,1017.23
2023-05-30T03:13:21.892Z,1017.22
2023-05-30T03:14:22.792Z,1017.22
2023-05-30T03:15:23.697Z,1017.24
2023-05-30T03:16:24.664Z,1017.24
2023-05-30T03:17:25.339Z,1017.25
2023-05-30T03:18:26.248Z,1017.27
2023-05-30T03:19:27.163Z,1017.29
2023-05-30T03:20:28.090Z,1017.32
2023-05-30T03:21:29.067Z,1017.33
2023-05-30T03:22:30.019Z,1017.34
2023-05-30T03:23:30.952Z,1017.33
2023-05-30T03:24:31.870Z,1017.33
2023-05-30T03:25:32.771Z,1017.32
2023-05-30T03:26:33.692Z,1017.34
2023-05-30T03:27:34.586Z,1017.35
2023-05-30T03:28:36.434Z,1017.34
2023-05-30T03:29:36.352Z,1017.34
2023-05-30T03:30:37.281Z,1017.33
2023-05-30T03:31:38.208Z,1017.32
2023-05-30T03:32:39.134Z,1017.32
2023-05-30T03:33:40.046Z,1017.33
2023-05-30T03:34:40.956Z,1017.35
2023-05-30T03:35:41.584Z,1017.36
2023-05-30T03:36:42.555Z,1017.37
2023-05-30T03:37:43.438Z,1017.39
2023-05-30T03:38:44.361Z,1017.43
2023-05-30T03:39:45.254Z,1017.45
2023-05-30T03:40:46.270Z,1017.46
2023-05-30T03:41:46.682Z,1017.47
2023-05-30T03:42:47.610Z,1017.48
2023-05-30T03:43:48.526Z,1017.47
2023-05-30T03:44:49.478Z,1017.48
2023-05-30T03:45:50.560Z,1017.49
2023-05-30T03:46:51.929Z,1017.49
2023-05-30T03:47:51.877Z,1017.50
2023-05-30T03:48:55.431Z,1017.53
2023-05-30T03:49:54.750Z,1017.53
2023-05-30T03:50:53.884Z,1017.54
2023-05-30T03:51:54.806Z,1017.54
2023-05-30T03:52:55.692Z,1017.54
2023-05-30T03:53:56.613Z,1017.53
2023-05-30T03:54:57.595Z,1017.53
2023-05-30T03:55:58.505Z,1017.53
2023-05-30T03:56:59.393Z,1017.54
2023-05-30T03:58:00.313Z,1017.55
2023-05-30T03:59:01.232Z,1017.55
2023-05-30T04:00:02.201Z,1017.56
2023-05-30T04:01:03.101Z,1017.55
2023-05-30T04:02:04.032Z,1017.55
2023-05-30T04:03:04.935Z,1017.54
2023-05-30T04:04:05.878Z,1017.55
2023-05-30T04:05:06.804Z,1017.56
2023-05-30T04:06:07.702Z,1017.57
2023-05-30T04:07:08.666Z,1017.57
2023-05-30T04:08:09.145Z,1017.59
2023-05-30T04:09:10.078Z,1017.60
2023-05-30T04:10:10.982Z,1017.61
2023-05-30T04:11:11.902Z,1017.62
2023-05-30T04:12:12.800Z,1017.61
2023-05-30T04:13:13.724Z,1017.62
2023-05-30T04:14:14.646Z,1017.61
2023-05-30T04:15:15.552Z,1017.61
2023-05-30T04:16:16.524Z,1017.60
2023-05-30T04:17:16.946Z,1017.59
2023-05-30T04:18:17.890Z,1017.58
2023-05-30T04:19:18.783Z,1017.57
2023-05-30T04:20:19.725Z,1017.55
2023-05-30T04:21:20.606Z,1017.52
2023-05-30T04:22:21.618Z,1017.51
2023-05-30T04:23:22.525Z,1017.51
2023-05-30T04:24:23.424Z,1017.52
2023-05-30T04:25:24.361Z,1017.53
2023-05-30T04:26:25.273Z,1017.54
2023-05-30T04:27:26.196Z,1017.54
2023-05-30T04:28:27.110Z,1017.54
2023-05-30T04:29:28.006Z,1017.54
2023-05-30T04:30:28.918Z,1017.55
2023-05-30T04:31:29.870Z,1017.56
2023-05-30T04:32:30.856Z,1017.58
2023-05-30T04:33:31.723Z,1017.60
2023-05-30T04:34:32.627Z,1017.57
2023-05-30T04:35:33.526Z,1017.59
2023-05-30T04:36:34.450Z,1017.59
2023-05-30T04:37:35.365Z,1017.58
2023-05-30T04:38:36.257Z,1017.56
2023-05-30T04:39:37.944Z,1017.55
2023-05-30T04:40:37.881Z,1017.56
2023-05-30T04:41:38.840Z,1017.55
2023-05-30T04:42:39.738Z,1017.55
2023-05-30T04:43:40.639Z,1017.55
2023-05-30T04:44:41.547Z,1017.55
2023-05-30T04:45:42.536Z,1017.55
2023-05-30T04:46:43.509Z,1017.55
2023-05-30T04:47:43.976Z,1017.54
2023-05-30T04:48:44.860Z,1017.54
2023-05-30T04:49:45.759Z,1017.56
2023-05-30T04:50:46.684Z,1017.55
2023-05-30T04:51:47.600Z,1017.53
2023-05-30T04:52:48.516Z,1017.55
2023-05-30T04:53:49.386Z,1017.56
2023-05-30T04:54:50.305Z,1017.57
2023-05-30T04:55:51.289Z,1017.59
2023-05-30T04:56:51.734Z,1017.58
2023-05-30T04:57:52.636Z,1017.58
2023-05-30T04:58:53.543Z,1017.55
2023-05-30T04:59:54.215Z,1017.54
2023-05-30T05:00:54.626Z,1017.54
2023-05-30T05:01:55.298Z,1017.54
2023-05-30T05:02:55.854Z,1017.53
2023-05-30T05:03:56.484Z,1017.55
2023-05-30T05:04:56.993Z,1017.55
2023-05-30T05:05:57.888Z,1017.54
2023-05-30T05:06:58.803Z,1017.55
2023-05-30T05:07:59.839Z,1017.53
2023-05-30T05:09:00.897Z,1017.53
2023-05-30T05:10:00.942Z,1017.53
2023-05-30T05:11:01.837Z,1017.54
2023-05-30T05:12:03.456Z,1017.54
2023-05-30T05:13:03.937Z,1017.54
2023-05-30T05:14:03.866Z,1017.53
2023-05-30T05:15:04.804Z,1017.53
2023-05-30T05:16:05.938Z,1017.53
2023-05-30T05:17:06.369Z,1017.52
2023-05-30T05:18:07.363Z,1017.53
2023-05-30T05:19:07.795Z,1017.51
2023-05-30T05:20:11.992Z,1017.53
2023-05-30T05:21:10.539Z,1017.55
2023-05-30T05:22:10.452Z,1017.55
2023-05-30T05:23:11.472Z,1017.56
2023-05-30T05:24:12.371Z,1017.55
2023-05-30T05:25:13.280Z,1017.53
2023-05-30T05:26:14.180Z,1017.56
2023-05-30T05:27:16.958Z,1017.57
2023-05-30T05:28:15.878Z,1017.58
2023-05-30T05:29:16.792Z,1017.61
2023-05-30T05:30:17.697Z,1017.63
2023-05-30T05:31:18.609Z,1017.61
2023-05-30T05:32:19.526Z,1017.62
2023-05-30T05:33:20.464Z,1017.64
2023-05-30T05:34:21.370Z,1017.65
2023-05-30T05:35:22.276Z,1017.61
2023-05-30T05:36:23.179Z,1017.64
2023-05-30T05:37:24.094Z,1017.64
2023-05-30T05:38:25.016Z,1017.62
2023-05-30T05:39:25.900Z,1017.63
2023-05-30T05:40:26.807Z,1017.65
2023-05-30T05:41:29.476Z,1017.66
2023-05-30T05:42:28.395Z,1017.67
2023-05-30T05:43:29.304Z,1017.72
2023-05-30T05:44:30.212Z,1017.76
2023-05-30T05:45:32.959Z,1017.79
2023-05-30T05:46:31.928Z,1017.78
2023-05-30T05:47:33.482Z,1017.81
2023-05-30T05:48:33.476Z,1017.82
2023-05-30T05:49:34.405Z,1017.80
2023-05-30T05:50:35.300Z,1017.82
2023-05-30T05:51:36.233Z,1017.82
2023-05-30T05:52:37.969Z,1017.84
2023-05-30T05:53:38.476Z,1017.84
2023-05-30T05:54:39.978Z,1017.91
2023-05-30T05:55:38.888Z,1017.89
2023-05-30T05:56:41.495Z,1017.89
2023-05-30T05:57:40.390Z,1017.90
2023-05-30T05:58:41.315Z,1017.90
2023-05-30T05:59:42.218Z,1017.91
2023-05-30T06:00:43.170Z,1017.90
2023-05-30T06:01:44.069Z,1017.90
2023-05-30T06:02:45.092Z,1017.91
2023-05-30T06:03:46.510Z,1017.93
2023-05-30T06:04:46.512Z,1017.94
2023-05-30T06:05:47.398Z,1017.95
2023-05-30T06:06:48.472Z,1017.97
2023-05-30T06:07:49.011Z,1017.96
2023-05-30T06:08:49.791Z,1017.95
2023-05-30T06:09:50.421Z,1017.96
2023-05-30T06:10:51.401Z,1017.96
2023-05-30T06:11:52.960Z,1017.91
2023-05-30T06:12:52.918Z,1017.91
2023-05-30T06:13:54.512Z,1017.89
2023-05-30T06:14:54.461Z,1017.87
2023-05-30T06:15:56.022Z,1017.86
2023-05-30T06:16:55.911Z,1017.89
2023-05-30T06:17:56.860Z,1017.90
2023-05-30T06:18:57.781Z,1017.87
2023-05-30T06:19:58.780Z,1017.86
2023-05-30T06:20:59.634Z,1017.86
2023-05-30T06:21:59.740Z,1017.87
2023-05-30T06:23:00.698Z,1017.85
2023-05-30T06:24:01.815Z,1017.85
2023-05-30T06:25:02.222Z,1017.84
2023-05-30T06:26:03.088Z,1017.85
2023-05-30T06:27:03.995Z,1017.85
2023-05-30T06:28:04.958Z,1017.89
2023-05-30T06:29:05.869Z,1017.90
2023-05-30T06:30:06.776Z,1017.89
2023-05-30T06:31:07.670Z,1017.88
2023-05-30T06:32:16.183Z,1017.89
2023-05-30T06:33:10.424Z,1017.90
2023-05-30T06:34:10.329Z,1017.90
2023-05-30T06:35:11.223Z,1017.90
2023-05-30T06:36:12.140Z,1017.91
2023-05-30T06:37:13.043Z,1017.92
2023-05-30T06:38:13.968Z,1017.92
2023-05-30T06:39:14.937Z,1017.96
2023-05-30T06:40:15.787Z,1017.98
2023-05-30T06:41:16.695Z,1017.96
2023-05-30T06:42:17.617Z,1017.98
2023-05-30T06:43:19.479Z,1017.98
2023-05-30T06:44:19.380Z,1017.99
2023-05-30T06:45:20.870Z,1018.00
2023-05-30T06:46:20.917Z,1017.99
2023-05-30T06:47:21.869Z,1018.01
2023-05-30T06:48:22.751Z,1018.00
2023-05-30T06:49:23.705Z,1018.00
2023-05-30T06:50:26.471Z,1018.02
2023-05-30T06:51:25.432Z,1018.03
2023-05-30T06:52:26.957Z,1018.03
2023-05-30T06:53:26.877Z,1018.04
2023-05-30T06:54:27.822Z,1018.04
2023-05-30T06:55:28.731Z,1018.03
2023-05-30T06:56:29.669Z,1018.04
2023-05-30T06:57:30.597Z,1018.04
2023-05-30T06:58:31.500Z,1018.02
2023-05-30T06:59:32.420Z,1018.01
2023-05-30T07:00:33.327Z,1018.00
2023-05-30T07:01:34.365Z,1018.00
2023-05-30T07:02:34.836Z,1018.01
2023-05-30T07:03:35.749Z,1017.96
2023-05-30T07:04:37.524Z,1017.99
2023-05-30T07:05:37.977Z,1017.95
2023-05-30T07:06:38.408Z,1017.93
2023-05-30T07:07:39.316Z,1017.93
2023-05-30T07:08:40.224Z,1017.91
2023-05-30T07:09:41.157Z,1017.93
2023-05-30T07:10:42.970Z,1017.92
2023-05-30T07:11:42.883Z,1017.93
2023-05-30T07:12:43.789Z,1017.94
2023-05-30T07:13:44.737Z,1017.95
2023-05-30T07:14:45.663Z,1017.95
2023-05-30T07:15:46.602Z,1017.96
2023-05-30T07:16:47.542Z,1017.99
2023-05-30T07:17:48.465Z,1018.01
2023-05-30T07:18:57.444Z,1018.02
2023-05-30T07:19:51.276Z,1017.99
2023-05-30T07:20:51.368Z,1018.03
2023-05-30T07:21:51.823Z,1017.98
2023-05-30T07:22:53.487Z,1017.99
2023-05-30T07:23:53.387Z,1017.95
2023-05-30T07:24:54.331Z,1017.95
2023-05-30T07:25:57.000Z,1017.91
2023-05-30T07:26:55.898Z,1017.94
2023-05-30T07:27:56.824Z,1017.96
2023-05-30T07:28:57.777Z,1017.95
2023-05-30T07:29:58.696Z,1017.98
2023-05-30T07:30:59.597Z,1017.98
2023-05-30T07:32:00.608Z,1018.00
2023-05-30T07:33:01.182Z,1018.02
2023-05-30T07:34:02.098Z,1018.00
2023-05-30T07:35:02.990Z,1018.02
2023-05-30T07:36:03.912Z,1018.00
2023-05-30T07:37:04.809Z,1017.99
2023-05-30T07:38:05.724Z,1018.00
2023-05-30T07:39:06.680Z,1018.01
2023-05-30T07:40:07.578Z,1017.96
2023-05-30T07:41:08.479Z,1017.95
2023-05-30T07:42:10.002Z,1017.95
2023-05-30T07:43:09.946Z,1017.96
2023-05-30T07:44:12.507Z,1018.04
2023-05-30T07:45:11.392Z,1017.99
2023-05-30T07:46:12.345Z,1018.01
2023-05-30T07:47:13.238Z,1017.98
2023-05-30T07:48:14.044Z,1017.95
2023-05-30T07:49:14.999Z,1017.94
2023-05-30T07:50:15.909Z,1017.94
2023-05-30T07:51:16.827Z,1017.92
2023-05-30T07:52:17.743Z,1017.95
2023-05-30T07:53:18.704Z,1017.90
2023-05-30T07:54:19.621Z,1017.89
2023-05-30T07:55:20.597Z,1017.90
2023-05-30T07:56:21.465Z,1017.91
2023-05-30T07:57:23.001Z,1017.93
2023-05-30T07:58:23.489Z,1017.91
2023-05-30T07:59:23.411Z,1017.88
2023-05-30T08:00:25.979Z,1017.89
2023-05-30T08:01:24.908Z,1017.88
2023-05-30T08:02:25.920Z,1017.86
2023-05-30T08:03:27.379Z,1017.87
2023-05-30T08:04:26.933Z,1017.88
2023-05-30T08:05:31.516Z,1017.90
2023-05-30T08:06:28.411Z,1017.93
2023-05-30T08:07:30.003Z,1017.93
2023-05-30T08:08:29.915Z,1017.93
2023-05-30T08:09:30.890Z,1017.94
2023-05-30T08:10:31.861Z,1017.96
2023-05-30T08:11:32.326Z,1017.98
2023-05-30T08:12:33.251Z,1017.96
2023-05-30T08:13:34.139Z,1017.97
2023-05-30T08:14:35.056Z,1017.99
2023-05-30T08:15:35.998Z,1017.98
2023-05-30T08:16:37.032Z,1018.01
2023-05-30T08:17:37.414Z,1018.02
2023-05-30T08:18:38.327Z,1018.01
2023-05-30T08:19:39.300Z,1018.00
2023-05-30T08:20:40.277Z,1018.01
2023-05-30T08:21:41.061Z,1017.99
2023-05-30T08:22:41.536Z,1017.98
2023-05-30T08:23:42.414Z,1018.00
2023-05-30T08:24:44.035Z,1017.99
2023-05-30T08:25:43.979Z,1017.96
2023-05-30T08:26:44.896Z,1017.96
2023-05-30T08:27:45.819Z,1017.98
2023-05-30T08:28:48.589Z,1017.97
2023-05-30T08:29:47.491Z,1017.97
2023-05-30T08:30:48.537Z,1017.97
2023-05-30T08:31:48.912Z,1017.97
2023-05-30T08:32:49.846Z,1017.98
2023-05-30T08:33:51.484Z,1018.04
2023-05-30T08:34:51.467Z,1018.03
2023-05-30T08:35:52.334Z,1018.04
2023-05-30T08:36:53.235Z,1018.05
2023-05-30T08:37:54.145Z,1018.06
2023-05-30T08:39:13.236Z,1018.05
2023-05-30T08:39:56.907Z,1018.03
2023-05-30T08:40:56.987Z,1018.01
2023-05-30T08:41:57.507Z,1018.01
2023-05-30T08:42:58.415Z,1017.99
2023-05-30T08:43:59.382Z,1017.97
2023-05-30T08:45:00.278Z,1017.97
2023-05-30T08:46:01.243Z,1017.95
2023-05-30T08:47:02.146Z,1017.95
2023-05-30T08:48:03.079Z,1017.95
2023-05-30T08:49:07.010Z,1017.98
2023-05-30T08:50:04.910Z,1018.01
2023-05-30T08:51:05.830Z,1017.97
2023-05-30T08:52:06.734Z,1017.95
2023-05-30T08:53:09.589Z,1017.98
2023-05-30T08:54:09.005Z,1017.99
2023-05-30T08:55:09.445Z,1017.98
2023-05-30T08:56:10.369Z,1018.00
2023-05-30T08:57:12.030Z,1018.04
2023-05-30T08:58:11.967Z,1018.03
2023-05-30T08:59:12.876Z,1018.03
2023-05-30T09:00:14.616Z,1018.04
2023-05-30T09:01:16.607Z,1017.99
2023-05-30T09:02:15.532Z,1018.00
2023-05-30T09:03:16.546Z,1017.99
2023-05-30T09:04:17.543Z,1017.99
2023-05-30T09:05:17.452Z,1017.99
2023-05-30T09:06:18.487Z,1017.99
2023-05-30T09:07:19.511Z,1017.97
2023-05-30T09:08:19.452Z,1017.96
2023-05-30T09:09:20.323Z,1017.94
2023-05-30T09:10:22.094Z,1017.96
2023-05-30T09:11:21.989Z,1017.98
2023-05-30T09:12:22.928Z,1017.99
2023-05-30T09:13:23.829Z,1017.97
2023-05-30T09:14:24.781Z,1017.96
2023-05-30T09:15:25.703Z,1017.93
2023-05-30T09:16:26.721Z,1017.95
2023-05-30T09:17:27.152Z,1017.93
2023-05-30T09:18:28.048Z,1017.92
2023-05-30T09:19:28.959Z,1017.94
2023-05-30T09:20:31.610Z,1017.92
2023-05-30T09:21:30.557Z,1017.93
2023-05-30T09:22:31.471Z,1017.92
2023-05-30T09:23:32.387Z,1017.90
2023-05-30T09:24:33.295Z,1017.87
2023-05-30T09:25:34.276Z,1017.89
2023-05-30T09:26:35.229Z,1017.88
2023-05-30T09:27:36.134Z,1017.87
2023-05-30T09:28:37.051Z,1017.87
2023-05-30T09:29:37.950Z,1017.91
2023-05-30T09:30:38.916Z,1017.87
2023-05-30T09:31:39.799Z,1017.84
2023-05-30T09:32:40.754Z,1017.87
2023-05-30T09:33:41.643Z,1017.88
2023-05-30T09:34:42.731Z,1017.86
2023-05-30T09:35:45.043Z,1017.86
2023-05-30T09:36:43.950Z,1017.86
2023-05-30T09:37:48.053Z,1017.87
2023-05-30T09:38:45.751Z,1017.86
2023-05-30T09:39:46.749Z,1017.85
2023-05-30T09:40:47.864Z,1017.86
2023-05-30T09:41:48.328Z,1017.87
2023-05-30T09:42:49.222Z,1017.89
2023-05-30T09:43:50.230Z,1017.87
2023-05-30T09:44:50.828Z,1017.89
2023-05-30T09:45:51.748Z,1017.90
2023-05-30T09:46:52.698Z,1017.90
2023-05-30T09:47:53.653Z,1017.87
2023-05-30T09:48:54.089Z,1017.85
2023-05-30T09:49:55.027Z,1017.83
2023-05-30T09:50:56.212Z,1017.84
2023-05-30T09:51:56.751Z,1017.80
2023-05-30T09:52:58.026Z,1017.81
2023-05-30T09:53:59.498Z,1017.85
2023-05-30T09:55:01.107Z,1017.87
2023-05-30T09:56:00.044Z,1017.83
2023-05-30T09:57:00.955Z,1017.87
2023-05-30T09:58:01.881Z,1017.83
2023-05-30T09:59:02.903Z,1017.78
2023-05-30T10:00:03.819Z,1017.75
2023-05-30T10:01:04.716Z,1017.74
2023-05-30T10:02:05.670Z,1017.74
2023-05-30T10:03:06.692Z,1017.75
2023-05-30T10:04:07.343Z,1017.77
2023-05-30T10:05:07.807Z,1017.78
2023-05-30T10:06:08.719Z,1017.73
2023-05-30T10:07:09.645Z,1017.68
2023-05-30T10:08:10.559Z,1017.68
2023-05-30T10:09:11.456Z,1017.73
2023-05-30T10:10:12.375Z,1017.73
2023-05-30T10:11:13.304Z,1017.76
2023-05-30T10:12:15.091Z,1017.78
2023-05-30T10:13:15.009Z,1017.75
2023-05-30T10:14:15.973Z,1017.75
2023-05-30T10:15:16.897Z,1017.79
2023-05-30T10:16:17.829Z,1017.78
2023-05-30T10:17:18.786Z,1017.77
2023-05-30T10:18:19.691Z,1017.76
2023-05-30T10:19:20.650Z,1017.76
2023-05-30T10:20:22.060Z,1017.79
2023-05-30T10:21:22.461Z,1017.78
2023-05-30T10:22:23.389Z,1017.76
2023-05-30T10:23:24.354Z,1017.74
2023-05-30T10:24:25.217Z,1017.74
2023-05-30T10:25:26.193Z,1017.75
2023-05-30T10:26:26.983Z,1017.79
2023-05-30T10:27:27.492Z,1017.75
2023-05-30T10:28:28.417Z,1017.73
2023-05-30T10:29:29.329Z,1017.76
2023-05-30T10:30:30.239Z,1017.81
2023-05-30T10:31:31.256Z,1017.75
2023-05-30T10:32:31.671Z,1017.77
2023-05-30T10:33:55.350Z,1017.74
2023-05-30T10:34:34.355Z,1017.75
2023-05-30T10:35:35.521Z,1017.76
2023-05-30T10:36:34.889Z,1017.78
2023-05-30T10:37:35.790Z,1017.70
2023-05-30T10:38:37.594Z,1017.70
2023-05-30T10:39:37.492Z,1017.70
2023-05-30T10:40:38.409Z,1017.77
2023-05-30T10:41:49.539Z,1017.77
2023-05-30T10:42:40.794Z,1017.74
2023-05-30T10:43:41.528Z,1017.71
2023-05-30T10:44:41.437Z,1017.72
2023-05-30T10:45:42.410Z,1017.71
2023-05-30T10:46:43.388Z,1017.69
2023-05-30T10:47:44.327Z,1017.67
2023-05-30T10:48:45.244Z,1017.67
2023-05-30T10:49:46.250Z,1017.70
2023-05-30T10:50:47.087Z,1017.70
2023-05-30T10:51:47.485Z,1017.70
2023-05-30T10:52:48.468Z,1017.69
2023-05-30T10:53:49.362Z,1017.71
2023-05-30T10:54:50.292Z,1017.69
2023-05-30T10:55:51.208Z,1017.67
2023-05-30T10:56:52.161Z,1017.71
2023-05-30T10:57:53.071Z,1017.65
2023-05-30T10:58:53.963Z,1017.65
2023-05-30T10:59:54.937Z,1017.66
2023-05-30T11:00:56.528Z,1017.59
2023-05-30T11:01:56.475Z,1017.58
2023-05-30T11:02:56.999Z,1017.61
2023-05-30T11:03:57.933Z,1017.61
2023-05-30T11:04:58.868Z,1017.60
2023-05-30T11:06:00.190Z,1017.63
2023-05-30T11:07:00.282Z,1017.63
2023-05-30T11:08:01.280Z,1017.60
2023-05-30T11:09:01.767Z,1017.59
2023-05-30T11:10:04.110Z,1017.54
2023-05-30T11:11:03.362Z,1017.53
2023-05-30T11:12:04.348Z,1017.50
2023-05-30T11:13:04.799Z,1017.48
2023-05-30T11:14:05.729Z,1017.48
2023-05-30T11:15:06.662Z,1017.44
2023-05-30T11:16:07.600Z,1017.45
2023-05-30T11:17:08.540Z,1017.47
2023-05-30T11:18:09.594Z,1017.43
2023-05-30T11:19:11.700Z,1017.48
2023-05-30T11:20:10.918Z,1017.52
2023-05-30T11:21:11.470Z,1017.51
2023-05-30T11:22:12.729Z,1017.55
2023-05-30T11:23:13.847Z,1017.56
2023-05-30T11:24:13.776Z,1017.55
2023-05-30T11:25:14.738Z,1017.50
2023-05-30T11:26:15.616Z,1017.45
2023-05-30T11:27:16.534Z,1017.49
2023-05-30T11:28:17.006Z,1017.46
2023-05-30T11:29:17.898Z,1017.48
2023-05-30T11:30:20.556Z,1017.47
2023-05-30T11:31:19.546Z,1017.42
2023-05-30T11:32:20.046Z,1017.41
2023-05-30T11:33:20.978Z,1017.45
2023-05-30T11:34:24.573Z,1017.47
2023-05-30T11:37:11.590Z,1017.45
2023-05-30T11:38:12.490Z,1017.47
2023-05-30T11:39:13.402Z,1017.49
2023-05-30T11:40:14.318Z,1017.47
2023-05-30T11:41:15.216Z,1017.42
2023-05-30T11:42:16.104Z,1017.40
2023-05-30T11:43:17.000Z,1017.40
2023-05-30T11:44:17.900Z,1017.46
2023-05-30T11:45:18.848Z,1017.46
2023-05-30T11:46:19.869Z,1017.45
2023-05-30T11:47:43.743Z,1017.46
2023-05-30T11:48:22.094Z,1017.45
2023-05-30T11:49:21.990Z,1017.50
2023-05-30T11:50:22.945Z,1017.49
2023-05-30T11:51:24.441Z,1017.51
2023-05-30T11:52:24.588Z,1017.53
2023-05-30T11:53:25.494Z,1017.54
2023-05-30T11:54:26.409Z,1017.53
2023-05-30T11:55:27.333Z,1017.54
2023-05-30T11:56:28.294Z,1017.58
2023-05-30T11:57:30.821Z,1017.62
2023-05-30T11:58:29.709Z,1017.64
2023-05-30T11:59:30.643Z,1017.61
2023-05-30T12:00:31.559Z,1017.61
2023-05-30T12:01:32.464Z,1017.60
2023-05-30T12:02:34.200Z,1017.63
2023-05-30T12:03:34.060Z,1017.62
2023-05-30T12:04:35.082Z,1017.61
2023-05-30T12:05:35.511Z,1017.61
2023-05-30T12:06:36.531Z,1017.59
2023-05-30T12:07:36.941Z,1017.63
2023-05-30T12:08:37.833Z,1017.58
2023-05-30T12:09:38.792Z,1017.61
2023-05-30T12:10:39.698Z,1017.62
2023-05-30T12:11:40.610Z,1017.62
2023-05-30T12:12:41.744Z,1017.60
2023-05-30T12:13:42.154Z,1017.61
2023-05-30T12:14:43.106Z,1017.64
2023-05-30T12:15:44.004Z,1017.61
2023-05-30T12:16:45.797Z,1017.56
2023-05-30T12:17:45.832Z,1017.54